createdAt,value
2018-07-21T00:01:03.638Z,7.53
2018-07-21T00:03:34.305Z,7.17
2018-07-21T00:06:05.104Z,7.20
2018-07-21T00:08:35.820Z,6.80
2018-07-21T00:11:06.532Z,8.10
2018-07-21T00:13:37.245Z,8.10
2018-07-21T00:16:07.974Z,7.50
2018-07-21T00:18:38.608Z,8.03
2018-07-21T00:21:09.504Z,8.23
2018-07-21T00:23:40.143Z,7.20
2018-07-21T00:26:10.845Z,7.80
2018-07-21T00:28:41.599Z,7.20
2018-07-21T00:31:12.407Z,6.70
2018-07-21T00:33:43.073Z,7.23
2018-07-21T00:36:13.739Z,7.60
2018-07-21T00:38:44.439Z,7.10
2018-07-21T00:41:15.144Z,6.80
2018-07-21T00:43:45.749Z,7.00
2018-07-21T00:46:16.456Z,7.23
2018-07-21T00:48:47.197Z,6.87
2018-07-21T00:51:17.884Z,6.97
2018-07-21T00:53:48.539Z,7.07
2018-07-21T00:56:19.284Z,6.40
2018-07-21T00:58:50.001Z,6.57
2018-07-21T01:01:20.668Z,6.70
2018-07-21T01:03:51.545Z,6.80
2018-07-21T01:06:22.308Z,7.10
2018-07-21T01:08:52.903Z,6.70
2018-07-21T01:11:23.826Z,6.50
2018-07-21T01:13:54.499Z,6.40
2018-07-21T01:16:25.220Z,6.60
2018-07-21T01:18:55.820Z,6.80
2018-07-21T01:21:26.476Z,6.40
2018-07-21T01:23:57.203Z,7.10
2018-07-21T01:26:27.781Z,6.73
2018-07-21T01:28:58.526Z,6.63
2018-07-21T01:31:29.248Z,6.90
2018-07-21T01:34:00.000Z,6.70
2018-07-21T01:36:30.682Z,6.77
2018-07-21T01:39:01.439Z,6.73
2018-07-21T01:41:32.104Z,7.27
2018-07-21T01:44:02.769Z,6.90
2018-07-21T01:46:33.511Z,7.07
2018-07-21T01:49:04.218Z,6.93
2018-07-21T01:51:34.991Z,6.67
2018-07-21T01:54:05.769Z,6.50
2018-07-21T01:56:36.411Z,6.53
2018-07-21T01:59:07.131Z,7.07
2018-07-21T02:01:37.841Z,6.70
2018-07-21T02:04:08.593Z,6.70
2018-07-21T02:06:39.406Z,6.47
2018-07-21T02:09:11.154Z,6.30
2018-07-21T02:11:41.901Z,6.80
2018-07-21T02:14:12.537Z,6.77
2018-07-21T02:16:42.702Z,6.53
2018-07-21T02:19:13.189Z,6.83
2018-07-21T02:21:43.902Z,7.27
2018-07-21T02:24:14.552Z,6.50
2018-07-21T02:26:45.269Z,6.90
2018-07-21T02:29:15.977Z,6.43
2018-07-21T02:31:46.893Z,6.90
2018-07-21T02:34:17.623Z,6.10
2018-07-21T02:36:48.320Z,6.87
2018-07-21T02:39:19.009Z,6.33
2018-07-21T02:41:49.850Z,6.70
2018-07-21T02:44:20.599Z,6.30
2018-07-21T02:46:51.292Z,6.60
2018-07-21T02:49:21.936Z,6.97
2018-07-21T02:51:52.681Z,6.43
2018-07-21T02:54:23.354Z,6.80
2018-07-21T02:56:53.980Z,6.90
2018-07-21T02:59:24.637Z,6.43
2018-07-21T03:01:55.787Z,6.00
2018-07-21T03:04:26.526Z,6.47
2018-07-21T03:06:57.199Z,6.10
2018-07-21T03:09:39.948Z,6.63
2018-07-21T03:12:10.897Z,6.77
2018-07-21T03:14:41.617Z,6.60
2018-07-21T03:17:12.962Z,7.20
2018-07-21T03:19:43.736Z,6.33
2018-07-21T03:22:14.861Z,7.13
2018-07-21T03:24:45.655Z,7.30
2018-07-21T03:27:16.350Z,6.90
2018-07-21T03:29:46.977Z,6.70
2018-07-21T03:32:17.683Z,6.87
2018-07-21T03:34:48.514Z,7.30
2018-07-21T03:37:19.150Z,7.70
2018-07-21T03:39:49.869Z,7.50
2018-07-21T03:42:20.589Z,7.27
2018-07-21T03:44:51.307Z,7.70
2018-07-21T03:50:17.064Z,7.60
2018-07-21T03:52:47.780Z,7.90
2018-07-21T03:55:19.331Z,7.63
2018-07-21T03:57:50.106Z,8.03
2018-07-21T04:00:20.844Z,7.17
2018-07-21T04:02:51.537Z,7.70
2018-07-21T04:05:28.436Z,7.93
2018-07-21T04:07:59.196Z,7.83
2018-07-21T04:10:29.889Z,7.77
2018-07-21T04:13:05.449Z,7.73
2018-07-21T04:15:36.982Z,9.00
2018-07-21T04:18:07.795Z,8.73
2018-07-21T04:29:58.155Z,8.00
2018-07-21T04:32:30.908Z,8.77
2018-07-21T04:35:08.120Z,9.10
2018-07-21T04:37:38.878Z,8.97
2018-07-21T04:40:09.540Z,8.27
2018-07-21T04:42:40.243Z,8.33
2018-07-21T04:48:27.343Z,8.70
2018-07-21T04:50:58.029Z,9.07
2018-07-21T04:53:28.865Z,8.77
2018-07-21T04:55:59.556Z,8.57
2018-07-21T04:58:39.881Z,8.90
2018-07-21T05:01:28.093Z,8.40
2018-07-21T05:03:58.817Z,8.70
2018-07-21T05:06:31.469Z,8.30
2018-07-21T05:09:02.606Z,8.57
2018-07-21T05:11:33.288Z,8.90
2018-07-21T05:14:03.927Z,8.43
2018-07-21T05:16:34.707Z,8.03
2018-07-21T05:19:05.693Z,8.37
2018-07-21T05:21:42.797Z,9.00
2018-07-21T05:24:13.643Z,8.17
2018-07-21T05:26:44.301Z,8.70
2018-07-21T05:29:15.055Z,7.87
2018-07-21T05:31:45.841Z,8.20
2018-07-21T05:34:17.570Z,8.13
2018-07-21T05:37:10.465Z,8.57
2018-07-21T05:39:56.666Z,8.40
2018-07-21T05:42:27.335Z,9.00
2018-07-21T05:44:58.130Z,8.37
2018-07-21T05:47:28.879Z,8.47
2018-07-21T05:49:59.695Z,7.93
2018-07-21T05:52:30.019Z,7.93
2018-07-21T05:55:00.966Z,7.63
2018-07-21T05:57:53.249Z,8.13
2018-07-21T06:00:26.331Z,6.70
2018-07-21T06:02:57.165Z,6.80
2018-07-21T06:05:28.187Z,6.00
2018-07-21T06:07:59.152Z,5.93
2018-07-21T06:10:30.279Z,5.60
2018-07-21T06:15:56.109Z,6.10
2018-07-21T06:18:27.132Z,6.63
2018-07-21T06:20:57.854Z,7.03
2018-07-21T06:23:28.681Z,6.97
2018-07-21T06:25:59.425Z,6.30
2018-07-21T06:28:30.434Z,6.47
2018-07-21T06:31:01.393Z,6.37
2018-07-21T06:33:32.040Z,6.20
2018-07-21T06:36:02.971Z,6.43
2018-07-21T06:38:33.814Z,5.87
2018-07-21T06:41:04.895Z,5.70
2018-07-21T06:43:36.293Z,6.10
2018-07-21T06:46:07.509Z,6.17
2018-07-21T06:48:38.475Z,6.10
2018-07-21T06:51:09.294Z,5.93
2018-07-21T06:53:40.345Z,6.10
2018-07-21T06:56:11.463Z,6.10
2018-07-21T06:58:42.176Z,5.97
2018-07-21T07:01:13.033Z,6.07
2018-07-21T07:03:44.093Z,6.03
2018-07-21T07:06:15.261Z,6.10
2018-07-21T07:08:46.262Z,6.77
2018-07-21T07:11:17.260Z,7.73
2018-07-21T07:13:48.376Z,7.43
2018-07-21T07:16:19.559Z,7.70
2018-07-21T07:18:50.661Z,8.20
2018-07-21T07:21:21.770Z,8.17
2018-07-21T07:23:53.052Z,7.80
2018-07-21T07:26:24.454Z,7.20
2018-07-21T07:28:55.393Z,9.43
2018-07-21T07:31:26.403Z,8.67
2018-07-21T07:33:57.445Z,8.57
2018-07-21T07:36:28.693Z,8.17
2018-07-21T07:38:59.862Z,8.20
2018-07-21T07:41:31.267Z,7.27
2018-07-21T07:44:02.140Z,8.00
2018-07-21T07:46:33.481Z,8.47
2018-07-21T07:49:04.426Z,9.33
2018-07-21T07:51:35.415Z,8.53
2018-07-21T07:54:06.549Z,8.30
2018-07-21T07:56:37.559Z,8.47
2018-07-21T07:59:08.499Z,10.20
2018-07-21T08:01:39.817Z,10.27
2018-07-21T08:04:10.957Z,10.47
2018-07-21T08:06:41.994Z,11.47
2018-07-21T08:09:13.755Z,11.10
2018-07-21T08:11:44.722Z,11.73
2018-07-21T08:14:15.817Z,10.90
2018-07-21T08:16:46.602Z,11.97
2018-07-21T08:19:17.883Z,11.57
2018-07-21T08:21:48.838Z,12.80
2018-07-21T08:24:19.770Z,11.30
2018-07-21T08:26:50.851Z,12.93
2018-07-21T08:29:21.906Z,11.17
2018-07-21T08:31:53.018Z,12.73
2018-07-21T08:34:23.946Z,12.17
2018-07-21T08:36:55.308Z,11.37
2018-07-21T08:39:26.376Z,13.40
2018-07-21T08:41:57.373Z,12.80
2018-07-21T08:44:28.465Z,14.23
2018-07-21T08:46:59.495Z,12.53
2018-07-21T08:49:30.444Z,12.93
2018-07-21T08:52:01.341Z,11.90
2018-07-21T08:54:32.452Z,11.23
2018-07-21T08:57:03.454Z,12.00
2018-07-21T08:59:34.549Z,11.63
2018-07-21T09:02:05.624Z,12.60
2018-07-21T09:04:36.666Z,11.77
2018-07-21T09:07:07.835Z,12.93
2018-07-21T09:09:38.978Z,12.27
2018-07-21T09:12:10.306Z,12.13
2018-07-21T09:14:41.499Z,12.00
2018-07-21T09:17:12.710Z,12.90
2018-07-21T09:19:43.809Z,12.50
2018-07-21T09:22:14.786Z,13.77
2018-07-21T09:24:45.995Z,14.40
2018-07-21T09:27:17.167Z,15.47
2018-07-21T09:29:48.127Z,16.43
2018-07-21T09:32:19.189Z,15.87
2018-07-21T09:34:50.336Z,17.40
2018-07-21T09:37:21.288Z,18.27
2018-07-21T09:39:52.587Z,18.80
2018-07-21T09:42:23.801Z,18.50
2018-07-21T09:44:54.819Z,19.17
2018-07-21T09:47:26.059Z,20.70
2018-07-21T09:49:57.049Z,20.97
2018-07-21T09:52:27.945Z,21.87
2018-07-21T09:54:59.208Z,20.03
2018-07-21T09:57:30.333Z,18.60
2018-07-21T10:00:01.511Z,20.20
2018-07-21T10:02:32.514Z,20.83
2018-07-21T10:05:03.589Z,22.80
2018-07-21T10:07:34.456Z,19.90
2018-07-21T10:10:05.527Z,20.43
2018-07-21T10:12:36.526Z,20.77
2018-07-21T10:15:08.117Z,21.67
2018-07-21T10:17:39.047Z,21.20
2018-07-21T10:20:09.991Z,21.00
2018-07-21T10:22:40.814Z,22.77
2018-07-21T10:25:17.043Z,20.67
2018-07-21T10:27:52.979Z,22.70
2018-07-21T10:30:24.747Z,19.43
2018-07-21T10:32:55.743Z,22.37
2018-07-21T10:35:26.692Z,21.90
2018-07-21T10:37:57.871Z,21.00
2018-07-21T10:40:29.185Z,19.97
2018-07-21T10:43:00.022Z,19.87
2018-07-21T10:45:31.379Z,18.83
2018-07-21T10:48:02.552Z,18.03
2018-07-21T10:50:33.321Z,18.67
2018-07-21T10:53:04.380Z,19.60
2018-07-21T10:55:35.248Z,19.23
2018-07-21T10:58:06.101Z,18.77
2018-07-21T11:00:37.224Z,20.30
2018-07-21T11:03:08.418Z,19.93
2018-07-21T11:05:39.420Z,21.13
2018-07-21T11:08:10.476Z,20.60
2018-07-21T11:10:41.452Z,21.23
2018-07-21T11:13:12.350Z,19.23
2018-07-21T11:15:43.423Z,16.87
2018-07-21T11:18:14.579Z,15.43
2018-07-21T11:20:45.537Z,16.97
2018-07-21T11:23:16.536Z,16.20
2018-07-21T11:25:47.643Z,17.53
2018-07-21T11:28:18.653Z,16.23
2018-07-21T11:30:49.981Z,16.30
2018-07-21T11:33:21.872Z,15.67
2018-07-21T11:35:52.522Z,15.70
2018-07-21T11:38:23.280Z,13.17
2018-07-21T11:40:54.490Z,13.23
2018-07-21T11:43:25.553Z,13.20
2018-07-21T11:45:56.606Z,14.63
2018-07-21T11:48:27.548Z,14.53
2018-07-21T11:50:58.751Z,14.20
2018-07-21T11:53:35.202Z,13.63
2018-07-21T11:56:05.645Z,13.93
2018-07-21T11:58:36.355Z,14.20
2018-07-21T12:01:07.753Z,15.07
2018-07-21T12:03:38.845Z,14.30
2018-07-21T12:06:09.702Z,13.00
2018-07-21T12:08:40.576Z,14.10
2018-07-21T12:11:11.668Z,14.03
2018-07-21T12:13:42.822Z,14.50
2018-07-21T12:16:13.715Z,13.83
2018-07-21T12:18:44.838Z,13.03
2018-07-21T12:21:15.993Z,13.53
2018-07-21T12:23:46.913Z,13.60
2018-07-21T12:26:18.069Z,13.73
2018-07-21T12:28:49.140Z,13.63
2018-07-21T12:31:20.195Z,14.10
2018-07-21T12:33:51.317Z,14.03
2018-07-21T12:36:22.533Z,14.23
2018-07-21T12:38:53.688Z,12.93
2018-07-21T12:41:24.628Z,13.27
2018-07-21T12:43:55.711Z,12.27
2018-07-21T12:46:26.701Z,12.30
2018-07-21T12:48:57.695Z,11.93
2018-07-21T12:51:28.740Z,12.60
2018-07-21T12:53:59.587Z,12.43
2018-07-21T12:56:30.439Z,11.90
2018-07-21T12:59:01.540Z,12.13
2018-07-21T13:01:32.422Z,12.17
2018-07-21T13:04:03.538Z,11.40
2018-07-21T13:06:34.476Z,10.57
2018-07-21T13:09:06.800Z,10.77
2018-07-21T13:11:37.965Z,11.17
2018-07-21T13:14:09.169Z,10.70
2018-07-21T13:16:40.269Z,10.43
2018-07-21T13:19:11.141Z,11.17
2018-07-21T13:21:42.208Z,10.67
2018-07-21T13:24:12.409Z,10.53
2018-07-21T13:26:43.039Z,10.63
2018-07-21T13:29:13.821Z,11.93
2018-07-21T13:31:45.050Z,11.13
2018-07-21T13:34:15.919Z,10.83
2018-07-21T13:36:46.828Z,10.50
2018-07-21T13:39:17.888Z,10.53
2018-07-21T13:41:48.773Z,9.57
2018-07-21T13:44:19.797Z,9.63
2018-07-21T13:46:50.878Z,10.73
2018-07-21T13:49:21.984Z,10.13
2018-07-21T13:51:53.113Z,9.73
2018-07-21T13:54:23.876Z,9.17
2018-07-21T13:56:54.800Z,9.60
2018-07-21T13:59:25.970Z,9.63
2018-07-21T14:01:56.919Z,10.33
2018-07-21T14:04:27.881Z,10.80
2018-07-21T14:06:59.034Z,11.00
2018-07-21T14:09:30.165Z,11.40
2018-07-21T14:12:01.802Z,11.43
2018-07-21T14:14:32.906Z,12.67
2018-07-21T14:17:03.854Z,11.97
2018-07-21T14:19:34.794Z,13.13
2018-07-21T14:22:05.789Z,13.27
2018-07-21T14:24:36.634Z,11.70
2018-07-21T14:27:07.602Z,11.30
2018-07-21T14:29:38.611Z,11.07
2018-07-21T14:32:09.538Z,11.53
2018-07-21T14:34:40.686Z,9.50
2018-07-21T14:37:11.886Z,9.53
2018-07-21T14:39:43.039Z,8.60
2018-07-21T14:42:14.236Z,9.20
2018-07-21T14:44:45.256Z,10.03
2018-07-21T14:47:15.965Z,9.20
2018-07-21T14:49:46.789Z,8.90
2018-07-21T14:52:17.462Z,9.60
2018-07-21T14:54:48.333Z,11.23
2018-07-21T14:57:18.909Z,11.07
2018-07-21T14:59:49.893Z,11.60
2018-07-21T15:02:21.095Z,11.13
2018-07-21T15:04:52.133Z,12.70
2018-07-21T15:07:23.210Z,13.73
2018-07-21T15:09:53.947Z,14.57
2018-07-21T15:12:25.013Z,14.93
2018-07-21T15:14:56.351Z,14.70
2018-07-21T15:17:27.146Z,16.30
2018-07-21T15:19:58.275Z,15.53
2018-07-21T15:22:29.219Z,16.90
2018-07-21T15:25:00.324Z,15.90
2018-07-21T15:27:31.435Z,15.90
2018-07-21T15:30:02.644Z,15.53
2018-07-21T15:32:33.544Z,15.93
2018-07-21T15:35:04.579Z,17.60
2018-07-21T15:37:35.456Z,15.27
2018-07-21T15:40:06.399Z,14.93
2018-07-21T15:42:37.534Z,13.40
2018-07-21T15:45:08.758Z,14.07
2018-07-21T15:47:39.602Z,12.97
2018-07-21T15:50:10.616Z,12.90
2018-07-21T15:52:41.629Z,12.77
2018-07-21T15:55:12.661Z,11.87
2018-07-21T15:57:43.303Z,11.27
2018-07-21T16:00:14.005Z,11.57
2018-07-21T16:02:45.145Z,12.37
2018-07-21T16:05:16.378Z,11.60
2018-07-21T16:07:47.562Z,11.20
2018-07-21T16:10:18.794Z,11.40
2018-07-21T16:12:49.850Z,11.73
2018-07-21T16:15:21.035Z,12.30
2018-07-21T16:17:51.994Z,12.17
2018-07-21T16:20:23.315Z,12.53
2018-07-21T16:22:54.201Z,12.60
2018-07-21T16:25:25.605Z,12.63
2018-07-21T16:27:56.788Z,12.70
2018-07-21T16:30:27.796Z,13.00
2018-07-21T16:32:58.759Z,12.90
2018-07-21T16:35:29.827Z,13.30
2018-07-21T16:38:00.918Z,12.40
2018-07-21T16:40:31.959Z,12.50
2018-07-21T16:43:03.074Z,12.50
2018-07-21T16:45:34.003Z,12.50
2018-07-21T16:48:05.069Z,13.17
2018-07-21T16:50:36.211Z,12.20
2018-07-21T16:53:07.418Z,14.60
2018-07-21T16:55:38.449Z,12.27
2018-07-21T16:58:09.385Z,13.27
2018-07-21T17:00:40.321Z,13.00
2018-07-21T17:03:11.190Z,14.40
2018-07-21T17:05:42.151Z,13.63
2018-07-21T17:08:12.989Z,13.70
2018-07-21T17:10:43.989Z,12.83
2018-07-21T17:13:15.327Z,14.10
2018-07-21T17:15:46.421Z,13.27
2018-07-21T17:18:18.375Z,12.73
2018-07-21T17:20:49.466Z,12.17
2018-07-21T17:23:20.430Z,13.63
2018-07-21T17:25:51.656Z,13.43
2018-07-21T17:28:22.831Z,11.80
2018-07-21T17:30:53.729Z,10.17
2018-07-21T17:33:24.694Z,10.30
2018-07-21T17:35:55.718Z,9.83
2018-07-21T17:38:26.566Z,9.03
2018-07-21T17:40:57.662Z,9.33
2018-07-21T17:43:28.463Z,9.57
2018-07-21T17:45:59.442Z,10.60
2018-07-21T17:48:30.670Z,22.67
2018-07-21T17:51:01.554Z,13.97
2018-07-21T17:53:32.813Z,27.83
2018-07-21T17:56:03.740Z,12.30
2018-07-21T17:58:34.572Z,12.33
2018-07-21T18:01:05.625Z,12.30
2018-07-21T18:03:36.652Z,12.57
2018-07-21T18:06:07.974Z,12.50
2018-07-21T18:08:38.811Z,13.10
2018-07-21T18:11:09.913Z,13.50
2018-07-21T18:13:41.216Z,14.13
2018-07-21T18:16:12.320Z,12.77
2018-07-21T18:18:43.475Z,13.70
2018-07-21T18:21:14.686Z,14.43
2018-07-21T18:23:45.753Z,12.60
2018-07-21T18:26:16.828Z,13.13
2018-07-21T18:28:47.760Z,13.50
2018-07-21T18:31:18.782Z,14.40
2018-07-21T18:33:49.741Z,14.23
2018-07-21T18:36:20.911Z,14.10
2018-07-21T18:38:51.911Z,14.73
2018-07-21T18:41:22.949Z,13.47
2018-07-21T18:43:53.883Z,14.33
2018-07-21T18:46:24.811Z,15.37
2018-07-21T18:48:55.763Z,13.50
2018-07-21T18:51:26.977Z,14.37
2018-07-21T18:53:58.023Z,14.23
2018-07-21T18:56:28.816Z,14.40
2018-07-21T18:58:59.736Z,15.17
2018-07-21T19:01:30.927Z,15.67
2018-07-21T19:04:01.959Z,15.73
2018-07-21T19:06:33.076Z,15.33
2018-07-21T19:09:06.128Z,14.73
2018-07-21T19:11:37.468Z,15.60
2018-07-21T19:14:08.295Z,16.93
2018-07-21T19:16:41.880Z,15.93
2018-07-21T19:19:12.876Z,14.53
2018-07-21T19:21:44.151Z,15.23
2018-07-21T19:24:15.016Z,14.87
2018-07-21T19:26:50.873Z,15.77
2018-07-21T19:29:21.749Z,16.13
2018-07-21T19:31:57.866Z,15.63
2018-07-21T19:34:28.769Z,16.23
2018-07-21T19:36:59.742Z,15.97
2018-07-21T19:39:30.800Z,16.43
2018-07-21T19:42:04.552Z,16.73
2018-07-21T19:44:35.832Z,17.70
2018-07-21T19:47:06.839Z,17.73
2018-07-21T19:49:37.613Z,16.57
2018-07-21T19:52:08.547Z,18.80
2018-07-21T19:54:39.367Z,18.77
2018-07-21T19:57:10.530Z,18.80
2018-07-21T19:59:41.636Z,19.00
2018-07-21T20:02:12.414Z,20.27
2018-07-21T20:04:43.568Z,20.57
2018-07-21T20:07:14.416Z,21.23
2018-07-21T20:09:45.429Z,19.77
2018-07-21T20:12:16.418Z,20.27
2018-07-21T20:14:47.483Z,20.80
2018-07-21T20:17:18.781Z,17.97
2018-07-21T20:19:49.782Z,19.70
2018-07-21T20:22:20.960Z,17.90
2018-07-21T20:24:52.030Z,18.47
2018-07-21T20:27:23.031Z,18.43
2018-07-21T20:29:54.853Z,19.00
2018-07-21T20:32:26.007Z,20.00
2018-07-21T20:34:57.048Z,19.70
2018-07-21T20:37:27.950Z,18.90
2018-07-21T20:39:58.906Z,18.50
2018-07-21T20:42:29.775Z,18.83
2018-07-21T20:45:00.762Z,19.17
2018-07-21T20:47:32.224Z,18.87
2018-07-21T20:50:03.338Z,19.67
2018-07-21T20:52:36.731Z,19.67
2018-07-21T20:55:07.743Z,19.23
2018-07-21T20:57:38.440Z,20.17
2018-07-21T21:00:09.505Z,18.63
2018-07-21T21:02:40.699Z,20.40
2018-07-21T21:05:11.543Z,20.00
2018-07-21T21:07:42.549Z,20.23
2018-07-21T21:10:13.445Z,20.80
2018-07-21T21:12:44.415Z,21.53
2018-07-21T21:15:15.326Z,21.40
2018-07-21T21:17:46.208Z,21.03
2018-07-21T21:20:17.285Z,22.30
2018-07-21T21:22:47.774Z,23.37
2018-07-21T21:25:18.545Z,24.80
2018-07-21T21:27:49.775Z,25.60
2018-07-21T21:30:20.764Z,25.17
2018-07-21T21:32:51.970Z,26.97
2018-07-21T21:35:23.435Z,27.33
2018-07-21T21:37:54.869Z,27.70
2018-07-21T21:40:25.810Z,26.27
2018-07-21T21:42:57.045Z,29.03
2018-07-21T21:45:28.018Z,27.53
2018-07-21T21:47:59.227Z,28.60
2018-07-21T21:50:29.539Z,30.03
2018-07-21T21:53:00.357Z,30.47
2018-07-21T21:55:31.282Z,31.27
2018-07-21T21:58:02.265Z,31.80
2018-07-21T22:00:50.705Z,30.23
2018-07-21T22:03:21.775Z,28.67
2018-07-21T22:05:52.969Z,30.53
2018-07-21T22:08:23.997Z,30.93
2018-07-21T22:10:55.096Z,31.77
2018-07-21T22:13:26.697Z,32.30
2018-07-21T22:15:58.345Z,30.07
2018-07-21T22:18:30.013Z,31.33
2018-07-21T22:21:01.205Z,30.63
2018-07-21T22:23:32.059Z,31.40
2018-07-21T22:26:03.113Z,30.60
2018-07-21T22:28:34.068Z,29.77
2018-07-21T22:31:05.149Z,33.63
2018-07-21T22:33:36.293Z,30.43
2018-07-21T22:36:07.355Z,31.57
2018-07-21T22:38:38.272Z,31.50
2018-07-21T22:41:09.405Z,35.37
2018-07-21T22:43:40.396Z,35.90
2018-07-21T22:46:11.520Z,35.37
2018-07-21T22:48:42.668Z,36.57
2018-07-21T22:51:13.674Z,37.23
2018-07-21T22:53:44.621Z,34.60
2018-07-21T22:56:15.781Z,36.80
2018-07-21T22:58:46.784Z,36.73
2018-07-21T23:01:18.249Z,36.87
2018-07-21T23:03:49.278Z,38.10
2018-07-21T23:06:20.216Z,34.47
2018-07-21T23:08:51.177Z,36.37
2018-07-21T23:11:22.255Z,37.10
2018-07-21T23:13:53.483Z,34.03
2018-07-21T23:16:24.914Z,34.10
2018-07-21T23:18:55.970Z,36.40
2018-07-21T23:21:27.165Z,37.10
2018-07-21T23:23:58.294Z,37.30
2018-07-21T23:26:29.286Z,35.33
2018-07-21T23:29:00.205Z,35.90
2018-07-21T23:31:31.330Z,36.63
2018-07-21T23:34:02.296Z,37.27
2018-07-21T23:36:33.125Z,36.43
2018-07-21T23:39:04.205Z,35.37
2018-07-21T23:41:35.342Z,34.17
2018-07-21T23:44:06.416Z,36.13
2018-07-21T23:46:37.459Z,36.27
2018-07-21T23:49:08.419Z,34.43
2018-07-21T23:51:39.262Z,33.90
2018-07-21T23:54:10.171Z,33.97
2018-07-21T23:56:41.064Z,33.67
2018-07-21T23:59:12.266Z,34.67
